createdAt,value
2019-06-08T00:00:25.328Z,32.67
2019-06-08T00:03:03.118Z,36.13
2019-06-08T00:05:40.964Z,34.47
2019-06-08T00:08:19.260Z,32.70
2019-06-08T00:10:58.911Z,39.10
2019-06-08T00:13:37.945Z,35.65
2019-06-08T00:16:17.392Z,36.77
2019-06-08T00:18:58.050Z,37.97
2019-06-08T00:21:43.017Z,38.90
2019-06-08T00:24:31.244Z,38.33
2019-06-08T00:27:10.754Z,34.80
2019-06-08T00:29:54.852Z,37.40
2019-06-08T00:32:53.085Z,34.00
2019-06-08T00:35:30.728Z,35.73
2019-06-08T00:38:12.547Z,32.23
2019-06-08T00:40:50.430Z,35.50
2019-06-08T00:43:28.993Z,37.83
2019-06-08T00:46:07.619Z,36.60
2019-06-08T00:48:49.282Z,35.93
2019-06-08T00:51:30.267Z,36.67
2019-06-08T00:54:12.923Z,37.43
2019-06-08T00:56:55.938Z,40.52
2019-06-08T00:59:33.610Z,40.50
2019-06-08T01:02:30.585Z,43.23
2019-06-08T01:05:15.297Z,38.17
2019-06-08T01:07:52.827Z,40.60
2019-06-08T01:10:35.870Z,39.37
2019-06-08T01:13:13.162Z,46.67
2019-06-08T01:15:57.459Z,44.57
2019-06-08T01:18:42.827Z,49.03
2019-06-08T01:21:30.097Z,46.63
2019-06-08T01:24:10.672Z,43.33
2019-06-08T01:26:54.704Z,41.10
2019-06-08T01:29:32.639Z,40.03
2019-06-08T01:32:14.111Z,39.00
2019-06-08T01:34:52.543Z,39.33
2019-06-08T01:37:31.386Z,41.33
2019-06-08T01:40:11.858Z,40.30
2019-06-08T01:42:53.006Z,38.63
2019-06-08T01:45:32.875Z,39.20
2019-06-08T01:48:20.140Z,38.97
2019-06-08T01:50:51.683Z,38.67
2019-06-08T01:53:43.502Z,35.93
2019-06-08T01:56:36.944Z,33.47
2019-06-08T01:59:18.412Z,35.80
2019-06-08T02:01:57.378Z,36.93
2019-06-08T02:04:35.556Z,35.93
2019-06-08T02:07:17.947Z,40.63
2019-06-08T02:09:57.424Z,36.83
2019-06-08T02:12:35.939Z,46.03
2019-06-08T02:15:13.920Z,37.73
2019-06-08T02:17:52.579Z,40.40
2019-06-08T02:20:31.383Z,38.90
2019-06-08T02:23:09.192Z,42.93
2019-06-08T02:25:51.092Z,45.87
2019-06-08T02:28:31.814Z,41.20
2019-06-08T02:31:13.355Z,40.57
2019-06-08T02:33:54.375Z,41.87
2019-06-08T02:39:57.752Z,38.03
2019-06-08T02:42:40.215Z,38.70
2019-06-08T02:45:32.141Z,36.00
2019-06-08T02:48:12.911Z,37.30
2019-06-08T02:50:55.091Z,37.73
2019-06-08T02:53:34.135Z,42.27
2019-06-08T02:56:14.820Z,46.47
2019-06-08T02:58:52.741Z,43.20
2019-06-08T03:01:38.869Z,40.80
2019-06-08T03:04:16.979Z,37.20
2019-06-08T03:07:02.109Z,36.17
2019-06-08T03:09:41.394Z,38.50
2019-06-08T03:12:19.980Z,43.07
2019-06-08T03:15:02.596Z,43.17
2019-06-08T03:17:41.887Z,40.93
2019-06-08T03:20:20.075Z,38.57
2019-06-08T03:22:58.307Z,36.70
2019-06-08T03:25:52.774Z,37.97
2019-06-08T03:28:26.692Z,39.10
2019-06-08T03:31:08.719Z,32.97
2019-06-08T03:33:55.678Z,36.87
2019-06-08T03:36:51.601Z,35.73
2019-06-08T03:39:27.977Z,39.97
2019-06-08T03:42:05.937Z,40.00
2019-06-08T03:44:49.176Z,41.10
2019-06-08T03:47:41.315Z,42.60
2019-06-08T03:50:28.326Z,48.30
2019-06-08T03:53:07.198Z,45.93
2019-06-08T03:55:46.663Z,42.93
2019-06-08T03:58:33.968Z,45.63
2019-06-08T04:01:14.639Z,44.83
2019-06-08T04:04:08.451Z,43.63
2019-06-08T04:06:54.213Z,46.83
2019-06-08T04:09:31.644Z,39.87
2019-06-08T04:12:18.054Z,42.00
2019-06-08T04:14:59.761Z,40.93
2019-06-08T04:17:37.902Z,37.83
2019-06-08T04:20:15.554Z,39.03
2019-06-08T04:22:53.015Z,38.73
2019-06-08T04:25:38.313Z,38.10
2019-06-08T04:28:19.873Z,39.63
2019-06-08T04:31:01.757Z,41.70
2019-06-08T04:33:42.119Z,44.30
2019-06-08T04:36:48.580Z,43.60
2019-06-08T04:39:25.846Z,44.93
2019-06-08T04:42:06.359Z,43.85
2019-06-08T04:44:46.936Z,45.33
2019-06-08T04:47:31.077Z,42.33
2019-06-08T04:50:22.422Z,43.10
2019-06-08T04:52:54.917Z,45.60
2019-06-08T04:55:33.041Z,48.08
2019-06-08T04:58:12.854Z,52.50
2019-06-08T05:00:51.194Z,51.98
2019-06-08T05:03:29.633Z,53.63
2019-06-08T05:06:08.837Z,47.75
2019-06-08T05:08:47.359Z,49.40
2019-06-08T05:11:25.485Z,47.03
2019-06-08T05:14:05.613Z,39.75
2019-06-08T05:16:45.362Z,44.53
2019-06-08T05:19:23.587Z,48.07
2019-06-08T05:22:02.743Z,59.18
2019-06-08T05:24:43.497Z,44.80
2019-06-08T05:27:20.876Z,41.90
2019-06-08T05:29:58.077Z,41.53
2019-06-08T05:32:36.458Z,35.52
2019-06-08T05:35:15.870Z,33.73
2019-06-08T05:37:55.722Z,34.58
2019-06-08T05:40:53.233Z,34.50
2019-06-08T05:43:31.344Z,40.45
2019-06-08T05:46:08.548Z,44.73
2019-06-08T05:48:45.957Z,29.63
2019-06-08T05:51:23.106Z,32.20
2019-06-08T05:54:02.863Z,25.85
2019-06-08T05:56:39.803Z,34.50
2019-06-08T05:59:17.331Z,35.63
2019-06-08T06:01:56.770Z,20.68
2019-06-08T06:04:34.081Z,19.95
2019-06-08T06:07:11.853Z,25.95
2019-06-08T06:09:52.179Z,24.63
2019-06-08T06:12:29.569Z,20.80
2019-06-08T06:15:07.271Z,22.67
2019-06-08T06:17:46.711Z,20.17
2019-06-08T06:20:23.503Z,21.05
2019-06-08T06:23:01.252Z,18.23
2019-06-08T06:25:38.991Z,21.65
2019-06-08T06:28:16.135Z,18.17
2019-06-08T06:30:57.335Z,24.23
2019-06-08T06:33:35.112Z,15.03
2019-06-08T06:36:12.830Z,20.02
2019-06-08T06:38:50.548Z,14.47
2019-06-08T06:41:28.260Z,16.10
2019-06-08T06:44:06.273Z,12.82
2019-06-08T06:46:44.015Z,31.25
2019-06-08T06:49:21.688Z,13.22
2019-06-08T06:51:59.397Z,14.15
2019-06-08T06:54:37.188Z,12.68
2019-06-08T06:57:14.948Z,13.62
2019-06-08T06:59:54.027Z,12.43
2019-06-08T07:02:31.925Z,20.90
2019-06-08T07:05:09.697Z,13.45
2019-06-08T07:07:48.150Z,13.80
2019-06-08T07:10:25.984Z,20.43
2019-06-08T07:13:03.708Z,15.90
2019-06-08T07:15:42.054Z,37.58
2019-06-08T07:18:19.817Z,12.82
2019-06-08T07:20:58.585Z,42.60
2019-06-08T07:23:37.348Z,14.95
2019-06-08T07:26:15.027Z,13.43
2019-06-08T07:28:53.608Z,29.30
2019-06-08T07:31:33.500Z,11.83
2019-06-08T07:34:11.270Z,12.00
2019-06-08T07:36:51.204Z,12.40
2019-06-08T07:39:31.203Z,30.05
2019-06-08T07:42:08.909Z,10.88
2019-06-08T07:44:46.886Z,21.25
2019-06-08T07:47:24.533Z,10.75
2019-06-08T07:50:04.656Z,11.85
2019-06-08T07:52:42.006Z,10.45
2019-06-08T07:55:19.723Z,13.10
2019-06-08T07:57:57.467Z,18.00
2019-06-08T08:00:35.158Z,16.55
2019-06-08T08:03:19.880Z,9.63
2019-06-08T08:05:58.596Z,13.50
2019-06-08T08:08:36.431Z,173.85
2019-06-08T08:11:14.147Z,10.45
2019-06-08T08:13:54.757Z,10.43
2019-06-08T08:16:32.594Z,9.28
2019-06-08T08:19:10.298Z,31.55
2019-06-08T08:21:50.177Z,44.30
2019-06-08T08:24:27.338Z,6.58
2019-06-08T08:27:05.056Z,8.95
2019-06-08T08:29:42.792Z,8.33
2019-06-08T08:32:20.525Z,10.18
2019-06-08T08:35:00.340Z,12.35
2019-06-08T08:37:38.066Z,8.55
2019-06-08T08:40:17.875Z,9.58
2019-06-08T08:42:55.712Z,8.53
2019-06-08T08:45:37.206Z,6.65
2019-06-08T08:48:24.464Z,8.63
2019-06-08T08:50:54.147Z,6.15
2019-06-08T08:53:31.960Z,7.95
2019-06-08T08:56:09.733Z,8.43
2019-06-08T08:58:47.840Z,11.90
2019-06-08T09:01:28.549Z,5.00
2019-06-08T09:04:05.335Z,12.90
2019-06-08T09:06:43.154Z,10.50
2019-06-08T09:09:21.705Z,8.95
2019-06-08T09:12:02.259Z,12.58
2019-06-08T09:14:41.709Z,5.80
2019-06-08T09:17:18.405Z,3.08
2019-06-08T09:19:58.800Z,2.85
2019-06-08T09:22:52.003Z,14.25
2019-06-08T09:25:14.897Z,23.42
2019-06-08T09:27:53.342Z,41.15
2019-06-08T09:30:31.957Z,14.23
2019-06-08T09:33:18.609Z,17.57
2019-06-08T09:35:58.188Z,17.95
2019-06-08T09:38:35.292Z,7.28
2019-06-08T09:41:13.025Z,7.58
2019-06-08T09:43:50.748Z,7.92
2019-06-08T09:46:28.479Z,13.03
2019-06-08T09:49:11.010Z,8.55
2019-06-08T09:51:45.599Z,23.67
2019-06-08T09:54:23.281Z,10.50
2019-06-08T09:57:02.772Z,26.73
2019-06-08T09:59:40.236Z,5.53
2019-06-08T10:02:18.510Z,7.58
2019-06-08T10:05:00.704Z,9.60
2019-06-08T10:07:38.860Z,12.35
2019-06-08T10:10:17.990Z,8.28
2019-06-08T10:12:56.954Z,34.03
2019-06-08T10:15:35.227Z,19.40
2019-06-08T10:18:12.929Z,7.90
2019-06-08T10:20:50.688Z,46.25
2019-06-08T10:23:34.276Z,7.87
2019-06-08T10:26:08.809Z,9.30
2019-06-08T10:28:48.249Z,46.45
2019-06-08T10:31:38.311Z,9.48
2019-06-08T10:34:06.669Z,9.78
2019-06-08T10:36:44.593Z,4.62
2019-06-08T10:39:22.299Z,17.07
2019-06-08T10:42:03.159Z,39.75
2019-06-08T10:44:39.904Z,11.18
2019-06-08T10:47:17.721Z,11.25
2019-06-08T10:49:55.363Z,8.80
2019-06-08T10:52:33.067Z,8.53
2019-06-08T10:55:12.223Z,35.50
2019-06-08T10:57:50.099Z,9.55
2019-06-08T11:00:29.435Z,8.45
2019-06-08T11:03:10.047Z,6.33
2019-06-08T11:05:48.377Z,12.55
2019-06-08T11:08:27.597Z,4.42
2019-06-08T11:11:09.885Z,6.90
2019-06-08T11:13:50.192Z,3.77
2019-06-08T11:16:28.687Z,11.48
2019-06-08T11:19:12.902Z,13.98
2019-06-08T11:21:48.670Z,5.85
2019-06-08T11:24:28.784Z,3.30
2019-06-08T11:27:12.480Z,4.70
2019-06-08T11:29:50.193Z,3.62
2019-06-08T11:32:28.268Z,6.83
2019-06-08T11:35:10.640Z,3.98
2019-06-08T11:37:48.698Z,4.78
2019-06-08T11:40:27.703Z,4.75
2019-06-08T11:43:04.728Z,5.23
2019-06-08T11:45:43.193Z,6.37
2019-06-08T11:48:20.337Z,2.90
2019-06-08T11:50:58.550Z,5.05
2019-06-08T11:53:38.451Z,4.45
2019-06-08T11:56:18.246Z,5.33
2019-06-08T11:58:57.816Z,3.30
2019-06-08T12:01:34.286Z,3.45
2019-06-08T12:04:12.456Z,3.30
2019-06-08T12:06:51.183Z,4.70
2019-06-08T12:09:29.905Z,4.80
2019-06-08T12:12:13.574Z,3.02
2019-06-08T12:14:47.689Z,3.83
2019-06-08T12:17:27.159Z,8.37
2019-06-08T12:20:05.498Z,5.37
2019-06-08T12:22:44.422Z,4.33
2019-06-08T12:25:22.239Z,4.87
2019-06-08T12:28:01.022Z,4.62
2019-06-08T12:30:40.773Z,3.60
2019-06-08T12:33:19.229Z,2.58
2019-06-08T12:35:58.088Z,3.62
2019-06-08T12:38:37.918Z,5.87
2019-06-08T12:41:15.863Z,3.47
2019-06-08T12:43:55.047Z,5.80
2019-06-08T12:46:34.479Z,4.30
2019-06-08T12:49:13.217Z,4.83
2019-06-08T12:51:53.673Z,3.27
2019-06-08T12:54:31.984Z,4.55
2019-06-08T12:57:13.752Z,4.53
2019-06-08T12:59:51.095Z,2.50
2019-06-08T13:02:31.258Z,3.77
2019-06-08T13:05:12.529Z,5.12
2019-06-08T13:07:49.594Z,4.70
2019-06-08T13:10:27.733Z,4.42
2019-06-08T13:13:05.486Z,4.50
2019-06-08T13:15:43.168Z,3.83
2019-06-08T13:18:21.473Z,6.62
2019-06-08T13:21:07.553Z,5.08
2019-06-08T13:23:41.302Z,6.85
2019-06-08T13:26:24.885Z,3.27
2019-06-08T13:29:09.212Z,9.88
2019-06-08T13:31:46.736Z,4.47
2019-06-08T13:34:24.636Z,4.42
2019-06-08T13:37:02.289Z,3.25
2019-06-08T13:39:40.020Z,4.45
2019-06-08T13:42:18.513Z,3.90
2019-06-08T13:44:58.797Z,2.85
2019-06-08T13:47:40.978Z,6.05
2019-06-08T13:50:27.855Z,3.50
2019-06-08T13:52:58.733Z,3.98
2019-06-08T13:55:49.737Z,4.17
2019-06-08T13:58:20.796Z,4.92
2019-06-08T14:00:59.488Z,3.02
2019-06-08T14:03:35.399Z,2.37
2019-06-08T14:06:14.159Z,4.58
2019-06-08T14:08:52.974Z,5.15
2019-06-08T14:11:31.493Z,5.28
2019-06-08T14:14:09.279Z,4.50
2019-06-08T14:16:50.418Z,3.15
2019-06-08T14:19:31.545Z,2.90
2019-06-08T14:22:11.713Z,5.53
2019-06-08T14:24:51.287Z,2.70
2019-06-08T14:27:33.232Z,4.72
2019-06-08T14:30:09.975Z,2.90
2019-06-08T14:32:48.378Z,2.42
2019-06-08T14:35:27.173Z,3.50
2019-06-08T14:38:07.564Z,2.83
2019-06-08T14:40:47.484Z,4.28
2019-06-08T14:43:29.681Z,3.08
2019-06-08T14:46:08.059Z,1.98
2019-06-08T14:48:46.048Z,3.25
2019-06-08T14:51:28.643Z,6.58
2019-06-08T14:54:05.032Z,3.52
2019-06-08T14:56:42.687Z,3.55
2019-06-08T14:59:21.927Z,7.80
2019-06-08T15:01:59.694Z,1.87
2019-06-08T15:04:39.869Z,3.87
2019-06-08T15:07:20.152Z,2.58
2019-06-08T15:09:58.072Z,2.72
2019-06-08T15:12:38.447Z,2.27
2019-06-08T15:15:19.826Z,7.45
2019-06-08T15:17:58.255Z,5.53
2019-06-08T15:20:37.938Z,5.28
2019-06-08T15:23:19.258Z,5.17
2019-06-08T15:25:58.143Z,5.70
2019-06-08T15:28:36.260Z,2.67
2019-06-08T15:31:13.486Z,3.55
2019-06-08T15:33:51.135Z,3.30
2019-06-08T15:36:30.908Z,2.85
2019-06-08T15:39:08.287Z,3.35
2019-06-08T15:41:48.571Z,2.77
2019-06-08T15:44:26.661Z,2.27
2019-06-08T15:47:04.964Z,3.42
2019-06-08T15:49:43.308Z,4.00
2019-06-08T15:52:24.396Z,2.80
2019-06-08T15:55:02.513Z,5.75
2019-06-08T15:57:42.357Z,4.47
2019-06-08T16:00:21.256Z,3.77
2019-06-08T16:03:01.979Z,3.75
2019-06-08T16:05:39.805Z,2.05
2019-06-08T16:08:17.677Z,3.92
2019-06-08T16:10:55.482Z,1.75
2019-06-08T16:13:33.343Z,5.28
2019-06-08T16:16:11.469Z,2.22
2019-06-08T16:18:52.379Z,2.98
2019-06-08T16:21:31.642Z,2.65
2019-06-08T16:24:09.697Z,6.28
2019-06-08T16:26:53.233Z,2.77
2019-06-08T16:29:29.399Z,2.67
2019-06-08T16:32:07.296Z,1.70
2019-06-08T16:34:45.124Z,3.47
2019-06-08T16:37:22.980Z,1.62
2019-06-08T16:40:01.784Z,2.67
2019-06-08T16:42:39.734Z,2.50
2019-06-08T16:45:17.491Z,2.45
2019-06-08T16:47:55.222Z,2.27
2019-06-08T16:50:34.262Z,5.47
2019-06-08T16:53:17.875Z,3.55
2019-06-08T16:55:55.576Z,1.90
2019-06-08T16:58:34.285Z,6.25
2019-06-08T17:01:12.135Z,2.60
2019-06-08T17:03:49.840Z,2.02
2019-06-08T17:06:27.563Z,2.90
2019-06-08T17:09:07.819Z,1.35
2019-06-08T17:11:45.534Z,3.37
2019-06-08T17:14:25.123Z,1.45
2019-06-08T17:17:18.379Z,1.82
2019-06-08T17:19:56.171Z,2.60
2019-06-08T17:22:34.516Z,2.52
2019-06-08T17:25:12.307Z,3.77
2019-06-08T17:27:50.016Z,2.37
2019-06-08T17:30:27.664Z,3.12
2019-06-08T17:33:05.419Z,3.12
2019-06-08T17:35:43.068Z,4.30
2019-06-08T17:38:20.808Z,3.17
2019-06-08T17:40:58.453Z,1.50
2019-06-08T17:43:36.212Z,5.35
2019-06-08T17:46:13.937Z,3.77
2019-06-08T17:48:51.829Z,2.00
2019-06-08T17:51:29.500Z,4.33
2019-06-08T17:54:07.413Z,3.52
2019-06-08T17:56:45.062Z,1.67
2019-06-08T17:59:41.675Z,2.90
2019-06-08T18:02:27.432Z,2.40
2019-06-08T18:04:59.810Z,3.87
2019-06-08T18:07:38.998Z,4.67
2019-06-08T18:10:21.955Z,3.92
2019-06-08T18:12:59.846Z,2.87
2019-06-08T18:15:39.078Z,4.95
2019-06-08T18:18:17.835Z,4.15
2019-06-08T18:20:57.986Z,5.20
2019-06-08T18:24:12.219Z,7.15
2019-06-08T18:26:50.609Z,4.90
2019-06-08T18:29:28.963Z,6.65
2019-06-08T18:32:07.346Z,4.62
2019-06-08T18:34:48.034Z,5.12
2019-06-08T18:37:25.790Z,5.05
2019-06-08T18:40:07.237Z,4.40
2019-06-08T18:42:47.977Z,2.42
2019-06-08T18:46:00.803Z,6.83
2019-06-08T18:48:41.735Z,4.83
2019-06-08T18:51:18.078Z,31.80
2019-06-08T18:54:08.488Z,18.77
2019-06-08T18:56:38.725Z,7.12
2019-06-08T18:59:17.656Z,4.80
2019-06-08T19:01:54.768Z,6.17
2019-06-08T19:04:32.547Z,4.78
2019-06-08T19:07:13.092Z,3.62
2019-06-08T19:09:50.861Z,4.58
2019-06-08T19:12:31.571Z,5.50
2019-06-08T19:15:11.570Z,7.70
2019-06-08T19:17:54.442Z,11.57
2019-06-08T19:20:30.687Z,12.73
2019-06-08T19:23:09.093Z,14.95
2019-06-08T19:25:49.514Z,8.85
2019-06-08T19:28:36.250Z,5.50
2019-06-08T19:31:11.469Z,8.03
2019-06-08T19:33:53.494Z,6.17
2019-06-08T19:36:28.528Z,4.30
2019-06-08T19:39:08.248Z,5.25
2019-06-08T19:41:49.211Z,6.85
2019-06-08T19:44:27.622Z,4.80
2019-06-08T19:47:04.644Z,5.42
2019-06-08T19:49:44.606Z,4.25
2019-06-08T19:52:23.555Z,5.25
2019-06-08T19:55:01.617Z,4.37
2019-06-08T19:57:41.302Z,3.85
2019-06-08T20:00:28.257Z,3.12
2019-06-08T20:03:07.666Z,6.22
2019-06-08T20:05:50.109Z,3.87
2019-06-08T20:08:28.320Z,5.10
2019-06-08T20:11:08.315Z,4.72
2019-06-08T20:17:08.109Z,7.03
2019-06-08T20:19:48.054Z,7.63
2019-06-08T20:22:27.644Z,7.10
2019-06-08T20:25:10.471Z,6.33
2019-06-08T20:27:51.648Z,6.87
2019-06-08T20:30:50.596Z,11.90
2019-06-08T20:33:41.312Z,5.10
2019-06-08T20:36:18.552Z,10.00
2019-06-08T20:38:58.192Z,7.17
2019-06-08T20:41:37.713Z,9.47
2019-06-08T20:44:16.261Z,9.33
2019-06-08T20:46:57.624Z,8.87
2019-06-08T20:49:37.184Z,10.20
2019-06-08T20:52:23.666Z,5.10
2019-06-08T20:55:02.792Z,9.53
2019-06-08T20:57:45.114Z,9.17
2019-06-08T21:00:25.159Z,8.07
2019-06-08T21:03:08.208Z,10.00
2019-06-08T21:05:54.174Z,11.40
2019-06-08T21:08:31.540Z,10.97
2019-06-08T21:11:11.837Z,9.83
2019-06-08T21:14:13.573Z,12.07
2019-06-08T21:16:55.708Z,11.70
2019-06-08T21:19:37.254Z,14.63
2019-06-08T21:22:18.483Z,12.33
2019-06-08T21:25:00.027Z,7.60
2019-06-08T21:28:04.470Z,11.67
2019-06-08T21:37:28.068Z,9.27
2019-06-08T21:40:08.478Z,6.93
2019-06-08T21:42:52.138Z,9.63
2019-06-08T21:45:33.042Z,5.33
2019-06-08T21:48:21.785Z,4.37
2019-06-08T21:51:33.921Z,5.70
2019-06-08T21:54:21.398Z,11.33
2019-06-08T21:57:13.898Z,3.40
2019-06-08T22:00:40.548Z,10.47
2019-06-08T22:03:28.156Z,13.83
2019-06-08T22:06:41.435Z,9.20
2019-06-08T22:09:30.523Z,7.33
2019-06-08T22:12:17.350Z,5.53
2019-06-08T22:15:10.300Z,4.93
2019-06-08T22:18:00.133Z,5.27
2019-06-08T22:20:51.723Z,9.47
2019-06-08T22:23:40.113Z,7.77
2019-06-08T22:27:00.384Z,12.03
2019-06-08T22:29:39.507Z,9.43
2019-06-08T22:32:38.465Z,8.10
2019-06-08T22:35:40.251Z,13.77
2019-06-08T22:38:20.220Z,5.97
2019-06-08T22:41:00.700Z,5.00
2019-06-08T22:44:37.469Z,5.80
2019-06-08T22:47:58.662Z,5.87
2019-06-08T22:50:44.760Z,6.60
2019-06-08T22:53:34.854Z,8.40
2019-06-08T22:56:39.378Z,7.10
2019-06-08T23:00:20.421Z,6.73
2019-06-08T23:03:06.215Z,5.67
2019-06-08T23:06:21.133Z,7.47
2019-06-08T23:09:19.212Z,5.43
2019-06-08T23:12:22.660Z,4.93
2019-06-08T23:15:37.355Z,18.73
2019-06-08T23:18:24.979Z,9.70
2019-06-08T23:21:33.122Z,8.90
2019-06-08T23:24:38.649Z,6.73
2019-06-08T23:27:37.791Z,7.00
2019-06-08T23:30:29.610Z,6.43
2019-06-08T23:33:20.406Z,6.80
2019-06-08T23:36:39.570Z,6.87
2019-06-08T23:39:01.111Z,7.00
2019-06-08T23:42:07.951Z,8.10
2019-06-08T23:45:19.723Z,5.30
2019-06-08T23:48:27.883Z,8.13
2019-06-08T23:51:18.746Z,7.70
2019-06-08T23:54:23.921Z,8.67
